Hoyte, Texas
Current Conditions -  °F | °C
As of 8:55 PM on Tuesday 21 Oct 2014 (Local Time) from KT35 Reporting Station
Clear Clear  
Wind Chill: 70°   Ceiling: Unl
Heat Index: 70°   Visibility: 10mi
Dew Point: 58°   Wind: 0mph
Humidity: 65%   Direction: NA
Pressure: 30.04"   Gusts: NA
Location:  30.8332°N, 96.9826°W
Report Text: KT35 220155Z AUTO 00000KT 10SM CLR 21/15 A3004 RMK AO2 T02130145
Loading
Personal Weather Stations






























Interactive Weather Map
Tropical Storm Tracking
New forecast layout! Learn more

10-Day Weather Forecast

Advertisements
Track Severe Weather on mobile